sensor_id;sensor_type;location;lat;lon;timestamp;P1;durP1;ratioP1;P2;durP2;ratioP2
27706;SDS011;36332;51.384;0.040;2022-09-24T00:01:57;7.10;;;2.83;;
27706;SDS011;36332;51.384;0.040;2022-09-24T00:04:25;6.93;;;3.42;;
27706;SDS011;36332;51.384;0.040;2022-09-24T00:06:57;11.30;;;3.45;;
27706;SDS011;36332;51.384;0.040;2022-09-24T00:09:25;11.18;;;3.75;;
27706;SDS011;36332;51.384;0.040;2022-09-24T00:11:53;9.27;;;3.30;;
27706;SDS011;36332;51.384;0.040;2022-09-24T00:14:20;7.13;;;3.50;;
27706;SDS011;36332;51.384;0.040;2022-09-24T00:16:48;11.80;;;3.42;;
27706;SDS011;36332;51.384;0.040;2022-09-24T00:19:16;15.27;;;3.55;;
27706;SDS011;36332;51.384;0.040;2022-09-24T00:21:45;9.73;;;3.17;;
27706;SDS011;36332;51.384;0.040;2022-09-24T00:24:13;10.30;;;3.22;;
27706;SDS011;36332;51.384;0.040;2022-09-24T00:27:03;9.65;;;3.88;;
27706;SDS011;36332;51.384;0.040;2022-09-24T00:29:31;12.18;;;3.40;;
27706;SDS011;36332;51.384;0.040;2022-09-24T00:32:00;13.32;;;3.13;;
27706;SDS011;36332;51.384;0.040;2022-09-24T00:34:29;13.75;;;4.93;;
27706;SDS011;36332;51.384;0.040;2022-09-24T00:36:57;9.63;;;4.55;;
27706;SDS011;36332;51.384;0.040;2022-09-24T00:39:25;15.43;;;3.78;;
27706;SDS011;36332;51.384;0.040;2022-09-24T00:41:53;7.50;;;3.47;;
27706;SDS011;36332;51.384;0.040;2022-09-24T00:47:12;10.65;;;3.08;;
27706;SDS011;36332;51.384;0.040;2022-09-24T00:49:53;16.67;;;4.38;;
27706;SDS011;36332;51.384;0.040;2022-09-24T00:52:27;11.93;;;4.00;;
27706;SDS011;36332;51.384;0.040;2022-09-24T00:54:55;19.38;;;4.45;;
27706;SDS011;36332;51.384;0.040;2022-09-24T00:57:23;13.90;;;3.75;;
27706;SDS011;36332;51.384;0.040;2022-09-24T00:59:51;11.07;;;3.17;;
27706;SDS011;36332;51.384;0.040;2022-09-24T01:02:20;8.80;;;3.35;;
27706;SDS011;36332;51.384;0.040;2022-09-24T01:04:48;9.95;;;4.07;;
27706;SDS011;36332;51.384;0.040;2022-09-24T01:07:22;15.15;;;4.32;;
27706;SDS011;36332;51.384;0.040;2022-09-24T01:09:51;9.57;;;3.75;;
27706;SDS011;36332;51.384;0.040;2022-09-24T01:12:31;13.73;;;4.18;;
27706;SDS011;36332;51.384;0.040;2022-09-24T01:28:47;10.90;;;4.30;;
27706;SDS011;36332;51.384;0.040;2022-09-24T01:31:28;9.48;;;4.03;;
27706;SDS011;36332;51.384;0.040;2022-09-24T01:34:20;17.27;;;4.65;;
27706;SDS011;36332;51.384;0.040;2022-09-24T01:36:53;12.02;;;5.55;;
27706;SDS011;36332;51.384;0.040;2022-09-24T01:39:23;15.25;;;4.07;;
27706;SDS011;36332;51.384;0.040;2022-09-24T01:41:52;16.45;;;4.57;;
27706;SDS011;36332;51.384;0.040;2022-09-24T01:44:20;15.77;;;4.72;;
27706;SDS011;36332;51.384;0.040;2022-09-24T01:46:48;12.15;;;4.25;;
27706;SDS011;36332;51.384;0.040;2022-09-24T01:49:16;13.82;;;4.40;;
27706;SDS011;36332;51.384;0.040;2022-09-24T01:51:49;17.17;;;5.93;;
27706;SDS011;36332;51.384;0.040;2022-09-24T01:54:41;13.82;;;5.22;;
27706;SDS011;36332;51.384;0.040;2022-09-24T01:57:28;16.05;;;5.18;;
27706;SDS011;36332;51.384;0.040;2022-09-24T02:00:12;15.18;;;4.85;;
27706;SDS011;36332;51.384;0.040;2022-09-24T02:02:44;16.88;;;6.28;;
27706;SDS011;36332;51.384;0.040;2022-09-24T02:05:37;12.50;;;4.93;;
27706;SDS011;36332;51.384;0.040;2022-09-24T02:08:18;16.48;;;4.97;;
27706;SDS011;36332;51.384;0.040;2022-09-24T02:13:33;15.98;;;6.20;;
27706;SDS011;36332;51.384;0.040;2022-09-24T02:16:07;21.58;;;4.80;;
27706;SDS011;36332;51.384;0.040;2022-09-24T02:18:38;18.92;;;5.25;;
27706;SDS011;36332;51.384;0.040;2022-09-24T02:21:09;14.35;;;5.60;;
27706;SDS011;36332;51.384;0.040;2022-09-24T02:23:40;13.15;;;5.68;;
27706;SDS011;36332;51.384;0.040;2022-09-24T02:26:25;15.93;;;5.97;;
27706;SDS011;36332;51.384;0.040;2022-09-24T02:28:53;20.92;;;6.15;;
27706;SDS011;36332;51.384;0.040;2022-09-24T02:31:23;18.27;;;5.78;;
27706;SDS011;36332;51.384;0.040;2022-09-24T02:33:55;22.33;;;8.57;;
27706;SDS011;36332;51.384;0.040;2022-09-24T02:36:45;12.40;;;5.88;;
27706;SDS011;36332;51.384;0.040;2022-09-24T02:39:34;17.02;;;6.60;;
27706;SDS011;36332;51.384;0.040;2022-09-24T02:42:05;16.65;;;7.70;;
27706;SDS011;36332;51.384;0.040;2022-09-24T02:44:35;23.23;;;9.63;;
27706;SDS011;36332;51.384;0.040;2022-09-24T02:47:03;16.58;;;10.07;;
27706;SDS011;36332;51.384;0.040;2022-09-24T02:49:32;21.80;;;11.07;;
27706;SDS011;36332;51.384;0.040;2022-09-24T02:52:00;23.98;;;11.63;;
27706;SDS011;36332;51.384;0.040;2022-09-24T02:54:27;26.60;;;14.90;;
27706;SDS011;36332;51.384;0.040;2022-09-24T02:56:55;28.63;;;13.63;;
27706;SDS011;36332;51.384;0.040;2022-09-24T02:59:23;30.13;;;14.27;;
27706;SDS011;36332;51.384;0.040;2022-09-24T03:01:51;34.50;;;14.90;;
27706;SDS011;36332;51.384;0.040;2022-09-24T03:04:19;25.10;;;14.75;;
27706;SDS011;36332;51.384;0.040;2022-09-24T03:06:47;26.27;;;14.38;;
27706;SDS011;36332;51.384;0.040;2022-09-24T03:09:15;31.77;;;14.70;;
27706;SDS011;36332;51.384;0.040;2022-09-24T03:11:43;32.58;;;13.15;;
27706;SDS011;36332;51.384;0.040;2022-09-24T03:14:10;30.25;;;14.05;;
27706;SDS011;36332;51.384;0.040;2022-09-24T03:16:38;30.80;;;15.48;;
27706;SDS011;36332;51.384;0.040;2022-09-24T03:19:06;38.70;;;14.68;;
27706;SDS011;36332;51.384;0.040;2022-09-24T03:21:34;32.90;;;16.55;;
27706;SDS011;36332;51.384;0.040;2022-09-24T03:24:02;32.50;;;15.05;;
27706;SDS011;36332;51.384;0.040;2022-09-24T03:26:30;34.25;;;14.07;;
27706;SDS011;36332;51.384;0.040;2022-09-24T03:28:58;39.85;;;15.40;;
27706;SDS011;36332;51.384;0.040;2022-09-24T03:31:26;35.05;;;15.82;;
27706;SDS011;36332;51.384;0.040;2022-09-24T03:33:54;35.55;;;15.85;;
27706;SDS011;36332;51.384;0.040;2022-09-24T03:36:23;36.05;;;16.42;;
27706;SDS011;36332;51.384;0.040;2022-09-24T03:38:55;37.33;;;16.83;;
27706;SDS011;36332;51.384;0.040;2022-09-24T03:41:26;38.47;;;15.80;;
27706;SDS011;36332;51.384;0.040;2022-09-24T03:43:54;34.22;;;14.93;;
27706;SDS011;36332;51.384;0.040;2022-09-24T03:46:22;28.50;;;13.95;;
27706;SDS011;36332;51.384;0.040;2022-09-24T03:48:56;33.60;;;14.93;;
27706;SDS011;36332;51.384;0.040;2022-09-24T03:51:26;28.92;;;15.73;;
27706;SDS011;36332;51.384;0.040;2022-09-24T03:53:54;35.33;;;14.38;;
27706;SDS011;36332;51.384;0.040;2022-09-24T03:56:22;30.60;;;12.70;;
27706;SDS011;36332;51.384;0.040;2022-09-24T03:58:50;31.38;;;12.57;;
27706;SDS011;36332;51.384;0.040;2022-09-24T04:01:17;31.45;;;11.48;;
27706;SDS011;36332;51.384;0.040;2022-09-24T04:03:48;21.58;;;11.48;;
27706;SDS011;36332;51.384;0.040;2022-09-24T04:06:16;35.50;;;13.05;;
27706;SDS011;36332;51.384;0.040;2022-09-24T04:08:51;28.00;;;11.90;;
27706;SDS011;36332;51.384;0.040;2022-09-24T04:11:19;24.25;;;11.32;;
27706;SDS011;36332;51.384;0.040;2022-09-24T04:13:47;28.27;;;10.88;;
27706;SDS011;36332;51.384;0.040;2022-09-24T04:16:15;29.27;;;10.50;;
27706;SDS011;36332;51.384;0.040;2022-09-24T04:18:42;23.77;;;10.35;;
27706;SDS011;36332;51.384;0.040;2022-09-24T04:21:12;19.27;;;10.25;;
27706;SDS011;36332;51.384;0.040;2022-09-24T04:23:40;22.63;;;10.45;;
27706;SDS011;36332;51.384;0.040;2022-09-24T04:26:08;21.13;;;10.35;;
27706;SDS011;36332;51.384;0.040;2022-09-24T04:28:36;14.88;;;9.82;;
27706;SDS011;36332;51.384;0.040;2022-09-24T04:31:03;20.50;;;10.18;;
27706;SDS011;36332;51.384;0.040;2022-09-24T04:33:32;18.52;;;10.07;;
27706;SDS011;36332;51.384;0.040;2022-09-24T04:35:59;31.70;;;10.73;;
27706;SDS011;36332;51.384;0.040;2022-09-24T04:38:27;21.52;;;10.90;;
27706;SDS011;36332;51.384;0.040;2022-09-24T04:41:02;30.40;;;11.77;;
27706;SDS011;36332;51.384;0.040;2022-09-24T04:43:34;32.25;;;10.43;;
27706;SDS011;36332;51.384;0.040;2022-09-24T04:46:03;22.15;;;10.77;;
27706;SDS011;36332;51.384;0.040;2022-09-24T04:48:31;22.40;;;11.00;;
27706;SDS011;36332;51.384;0.040;2022-09-24T04:51:00;21.52;;;10.85;;
27706;SDS011;36332;51.384;0.040;2022-09-24T04:53:29;24.63;;;11.77;;
27706;SDS011;36332;51.384;0.040;2022-09-24T04:55:56;27.02;;;11.75;;
27706;SDS011;36332;51.384;0.040;2022-09-24T04:58:25;28.38;;;11.02;;
27706;SDS011;36332;51.384;0.040;2022-09-24T05:00:54;20.30;;;11.57;;
27706;SDS011;36332;51.384;0.040;2022-09-24T05:03:21;24.52;;;12.00;;
27706;SDS011;36332;51.384;0.040;2022-09-24T05:05:49;29.10;;;12.05;;
27706;SDS011;36332;51.384;0.040;2022-09-24T05:08:17;18.45;;;11.13;;
27706;SDS011;36332;51.384;0.040;2022-09-24T05:10:45;22.90;;;12.00;;
27706;SDS011;36332;51.384;0.040;2022-09-24T05:13:13;25.80;;;11.85;;
27706;SDS011;36332;51.384;0.040;2022-09-24T05:15:40;29.67;;;12.85;;
27706;SDS011;36332;51.384;0.040;2022-09-24T05:18:09;25.15;;;12.25;;
27706;SDS011;36332;51.384;0.040;2022-09-24T05:20:37;19.15;;;11.07;;
27706;SDS011;36332;51.384;0.040;2022-09-24T05:23:05;21.67;;;12.15;;
27706;SDS011;36332;51.384;0.040;2022-09-24T05:25:32;26.02;;;12.98;;
27706;SDS011;36332;51.384;0.040;2022-09-24T05:28:20;32.42;;;11.98;;
27706;SDS011;36332;51.384;0.040;2022-09-24T05:30:48;30.83;;;11.18;;
27706;SDS011;36332;51.384;0.040;2022-09-24T05:33:16;17.63;;;10.80;;
27706;SDS011;36332;51.384;0.040;2022-09-24T05:35:44;24.50;;;11.18;;
27706;SDS011;36332;51.384;0.040;2022-09-24T05:38:11;25.33;;;11.27;;
27706;SDS011;36332;51.384;0.040;2022-09-24T05:40:41;24.35;;;9.55;;
27706;SDS011;36332;51.384;0.040;2022-09-24T05:43:14;24.42;;;9.27;;
27706;SDS011;36332;51.384;0.040;2022-09-24T05:45:43;25.88;;;9.27;;
27706;SDS011;36332;51.384;0.040;2022-09-24T05:48:11;13.45;;;8.65;;
27706;SDS011;36332;51.384;0.040;2022-09-24T05:50:39;22.77;;;8.52;;
27706;SDS011;36332;51.384;0.040;2022-09-24T05:53:08;19.30;;;9.00;;
27706;SDS011;36332;51.384;0.040;2022-09-24T05:55:35;16.80;;;9.18;;
27706;SDS011;36332;51.384;0.040;2022-09-24T05:58:04;26.23;;;11.32;;
27706;SDS011;36332;51.384;0.040;2022-09-24T06:00:33;20.48;;;9.45;;
27706;SDS011;36332;51.384;0.040;2022-09-24T06:03:02;24.08;;;9.65;;
27706;SDS011;36332;51.384;0.040;2022-09-24T06:05:32;31.70;;;10.38;;
27706;SDS011;36332;51.384;0.040;2022-09-24T06:08:04;19.30;;;9.10;;
27706;SDS011;36332;51.384;0.040;2022-09-24T06:10:35;23.08;;;9.55;;
27706;SDS011;36332;51.384;0.040;2022-09-24T06:13:03;23.00;;;9.23;;
27706;SDS011;36332;51.384;0.040;2022-09-24T06:15:31;21.02;;;9.15;;
27706;SDS011;36332;51.384;0.040;2022-09-24T06:18:00;18.42;;;8.68;;
27706;SDS011;36332;51.384;0.040;2022-09-24T06:20:28;17.08;;;8.23;;
27706;SDS011;36332;51.384;0.040;2022-09-24T06:22:56;21.85;;;8.90;;
27706;SDS011;36332;51.384;0.040;2022-09-24T06:25:24;21.70;;;8.43;;
27706;SDS011;36332;51.384;0.040;2022-09-24T06:27:56;34.00;;;10.75;;
27706;SDS011;36332;51.384;0.040;2022-09-24T06:30:29;19.02;;;9.93;;
27706;SDS011;36332;51.384;0.040;2022-09-24T06:33:10;25.20;;;10.10;;
27706;SDS011;36332;51.384;0.040;2022-09-24T06:35:39;19.40;;;10.02;;
27706;SDS011;36332;51.384;0.040;2022-09-24T06:38:09;18.08;;;10.05;;
27706;SDS011;36332;51.384;0.040;2022-09-24T06:40:38;22.55;;;10.60;;
27706;SDS011;36332;51.384;0.040;2022-09-24T06:43:06;25.45;;;10.73;;
27706;SDS011;36332;51.384;0.040;2022-09-24T06:45:36;15.15;;;9.43;;
27706;SDS011;36332;51.384;0.040;2022-09-24T06:48:04;23.17;;;10.52;;
27706;SDS011;36332;51.384;0.040;2022-09-24T06:50:33;17.92;;;10.18;;
27706;SDS011;36332;51.384;0.040;2022-09-24T06:53:03;19.67;;;9.38;;
27706;SDS011;36332;51.384;0.040;2022-09-24T06:55:35;22.60;;;9.45;;
27706;SDS011;36332;51.384;0.040;2022-09-24T06:58:14;23.23;;;9.77;;
27706;SDS011;36332;51.384;0.040;2022-09-24T07:00:48;22.08;;;9.05;;
27706;SDS011;36332;51.384;0.040;2022-09-24T07:03:20;19.95;;;9.15;;
27706;SDS011;36332;51.384;0.040;2022-09-24T07:05:48;20.55;;;10.15;;
27706;SDS011;36332;51.384;0.040;2022-09-24T07:08:16;16.58;;;9.63;;
27706;SDS011;36332;51.384;0.040;2022-09-24T07:10:44;23.08;;;9.65;;
27706;SDS011;36332;51.384;0.040;2022-09-24T07:13:15;24.15;;;10.02;;
27706;SDS011;36332;51.384;0.040;2022-09-24T07:15:43;25.60;;;11.00;;
27706;SDS011;36332;51.384;0.040;2022-09-24T07:18:11;21.80;;;11.32;;
27706;SDS011;36332;51.384;0.040;2022-09-24T07:20:39;21.33;;;10.55;;
27706;SDS011;36332;51.384;0.040;2022-09-24T07:23:08;26.90;;;11.65;;
27706;SDS011;36332;51.384;0.040;2022-09-24T07:25:37;29.95;;;11.05;;
27706;SDS011;36332;51.384;0.040;2022-09-24T07:28:06;22.20;;;11.13;;
27706;SDS011;36332;51.384;0.040;2022-09-24T07:30:36;21.90;;;10.27;;
27706;SDS011;36332;51.384;0.040;2022-09-24T07:33:04;27.20;;;10.90;;
27706;SDS011;36332;51.384;0.040;2022-09-24T07:35:33;22.98;;;11.02;;
27706;SDS011;36332;51.384;0.040;2022-09-24T07:38:04;22.65;;;11.88;;
27706;SDS011;36332;51.384;0.040;2022-09-24T07:40:38;21.05;;;10.18;;
27706;SDS011;36332;51.384;0.040;2022-09-24T07:43:06;22.48;;;11.48;;
27706;SDS011;36332;51.384;0.040;2022-09-24T07:45:40;21.15;;;10.60;;
27706;SDS011;36332;51.384;0.040;2022-09-24T07:48:08;21.42;;;10.15;;
27706;SDS011;36332;51.384;0.040;2022-09-24T07:50:38;24.15;;;11.05;;
27706;SDS011;36332;51.384;0.040;2022-09-24T07:53:10;24.38;;;10.43;;
27706;SDS011;36332;51.384;0.040;2022-09-24T07:55:39;26.17;;;11.60;;
27706;SDS011;36332;51.384;0.040;2022-09-24T07:58:07;20.83;;;11.23;;
27706;SDS011;36332;51.384;0.040;2022-09-24T08:00:40;20.67;;;10.93;;
27706;SDS011;36332;51.384;0.040;2022-09-24T08:03:08;21.90;;;11.63;;
27706;SDS011;36332;51.384;0.040;2022-09-24T08:05:40;20.77;;;10.73;;
27706;SDS011;36332;51.384;0.040;2022-09-24T08:08:11;23.38;;;10.27;;
27706;SDS011;36332;51.384;0.040;2022-09-24T08:10:39;22.30;;;10.43;;
27706;SDS011;36332;51.384;0.040;2022-09-24T08:13:08;18.00;;;10.00;;
27706;SDS011;36332;51.384;0.040;2022-09-24T08:15:36;22.23;;;10.65;;
27706;SDS011;36332;51.384;0.040;2022-09-24T08:18:04;29.38;;;11.65;;
27706;SDS011;36332;51.384;0.040;2022-09-24T08:20:33;27.33;;;12.40;;
27706;SDS011;36332;51.384;0.040;2022-09-24T08:23:04;25.75;;;12.02;;
27706;SDS011;36332;51.384;0.040;2022-09-24T08:25:33;23.30;;;11.23;;
27706;SDS011;36332;51.384;0.040;2022-09-24T08:28:02;25.77;;;11.82;;
27706;SDS011;36332;51.384;0.040;2022-09-24T08:30:34;23.77;;;12.05;;
27706;SDS011;36332;51.384;0.040;2022-09-24T08:33:02;22.90;;;12.18;;
27706;SDS011;36332;51.384;0.040;2022-09-24T08:35:33;25.02;;;13.35;;
27706;SDS011;36332;51.384;0.040;2022-09-24T08:38:02;24.67;;;13.30;;
27706;SDS011;36332;51.384;0.040;2022-09-24T08:40:30;27.80;;;13.27;;
27706;SDS011;36332;51.384;0.040;2022-09-24T08:45:54;25.10;;;12.55;;
27706;SDS011;36332;51.384;0.040;2022-09-24T08:48:44;24.33;;;12.63;;
27706;SDS011;36332;51.384;0.040;2022-09-24T08:51:17;29.25;;;13.23;;
27706;SDS011;36332;51.384;0.040;2022-09-24T08:53:58;24.60;;;12.95;;
27706;SDS011;36332;51.384;0.040;2022-09-24T08:56:34;25.02;;;12.57;;
27706;SDS011;36332;51.384;0.040;2022-09-24T08:59:09;28.92;;;12.25;;
27706;SDS011;36332;51.384;0.040;2022-09-24T09:09:14;20.52;;;11.48;;
27706;SDS011;36332;51.384;0.040;2022-09-24T09:11:58;21.02;;;9.48;;
27706;SDS011;36332;51.384;0.040;2022-09-24T09:19:47;21.95;;;8.32;;
27706;SDS011;36332;51.384;0.040;2022-09-24T09:22:25;17.33;;;7.68;;
27706;SDS011;36332;51.384;0.040;2022-09-24T09:24:58;23.98;;;8.75;;
27706;SDS011;36332;51.384;0.040;2022-09-24T09:28:03;14.48;;;7.20;;
27706;SDS011;36332;51.384;0.040;2022-09-24T09:30:50;16.85;;;6.85;;
27706;SDS011;36332;51.384;0.040;2022-09-24T09:41:33;24.48;;;8.20;;
27706;SDS011;36332;51.384;0.040;2022-09-24T09:44:12;20.98;;;6.82;;
27706;SDS011;36332;51.384;0.040;2022-09-24T09:46:45;20.58;;;6.10;;
27706;SDS011;36332;51.384;0.040;2022-09-24T09:49:32;11.32;;;5.45;;
27706;SDS011;36332;51.384;0.040;2022-09-24T09:52:03;14.10;;;6.10;;
27706;SDS011;36332;51.384;0.040;2022-09-24T09:54:39;11.73;;;5.35;;
27706;SDS011;36332;51.384;0.040;2022-09-24T09:57:10;9.48;;;5.30;;
27706;SDS011;36332;51.384;0.040;2022-09-24T09:59:41;14.90;;;5.32;;
27706;SDS011;36332;51.384;0.040;2022-09-24T10:02:32;9.80;;;4.22;;
27706;SDS011;36332;51.384;0.040;2022-09-24T10:05:04;13.55;;;4.72;;
27706;SDS011;36332;51.384;0.040;2022-09-24T10:07:41;7.82;;;3.33;;
27706;SDS011;36332;51.384;0.040;2022-09-24T10:12:39;9.52;;;3.78;;
27706;SDS011;36332;51.384;0.040;2022-09-24T10:17:42;6.45;;;2.97;;
27706;SDS011;36332;51.384;0.040;2022-09-24T10:20:14;8.98;;;3.38;;
27706;SDS011;36332;51.384;0.040;2022-09-24T10:22:50;4.30;;;2.25;;
27706;SDS011;36332;51.384;0.040;2022-09-24T10:25:24;8.93;;;3.00;;
27706;SDS011;36332;51.384;0.040;2022-09-24T10:27:54;8.15;;;2.70;;
27706;SDS011;36332;51.384;0.040;2022-09-24T10:30:52;8.10;;;2.40;;
27706;SDS011;36332;51.384;0.040;2022-09-24T10:33:23;5.28;;;2.17;;
27706;SDS011;36332;51.384;0.040;2022-09-24T10:36:02;11.55;;;2.78;;
27706;SDS011;36332;51.384;0.040;2022-09-24T10:38:34;12.82;;;2.80;;
27706;SDS011;36332;51.384;0.040;2022-09-24T10:41:11;6.45;;;2.30;;
27706;SDS011;36332;51.384;0.040;2022-09-24T10:43:50;5.68;;;2.38;;
27706;SDS011;36332;51.384;0.040;2022-09-24T10:46:25;22.67;;;2.67;;
27706;SDS011;36332;51.384;0.040;2022-09-24T10:49:24;6.50;;;2.00;;
27706;SDS011;36332;51.384;0.040;2022-09-24T11:04:58;9.27;;;3.25;;
27706;SDS011;36332;51.384;0.040;2022-09-24T11:21:37;5.13;;;1.50;;
27706;SDS011;36332;51.384;0.040;2022-09-24T11:24:31;5.90;;;1.40;;
27706;SDS011;36332;51.384;0.040;2022-09-24T11:30:20;6.32;;;1.25;;
27706;SDS011;36332;51.384;0.040;2022-09-24T11:41:44;4.22;;;1.20;;
27706;SDS011;36332;51.384;0.040;2022-09-24T11:50:11;3.28;;;1.60;;
27706;SDS011;36332;51.384;0.040;2022-09-24T11:55:26;5.18;;;1.48;;
27706;SDS011;36332;51.384;0.040;2022-09-24T12:00:53;6.22;;;1.40;;
27706;SDS011;36332;51.384;0.040;2022-09-24T12:06:59;6.05;;;1.60;;
27706;SDS011;36332;51.384;0.040;2022-09-24T12:09:16;6.30;;;1.83;;
27706;SDS011;36332;51.384;0.040;2022-09-24T12:11:47;4.68;;;1.55;;
27706;SDS011;36332;51.384;0.040;2022-09-24T12:14:21;3.05;;;1.05;;
27706;SDS011;36332;51.384;0.040;2022-09-24T12:16:53;5.32;;;0.95;;
27706;SDS011;36332;51.384;0.040;2022-09-24T12:19:29;5.53;;;1.35;;
27706;SDS011;36332;51.384;0.040;2022-09-24T12:22:04;6.90;;;1.45;;
27706;SDS011;36332;51.384;0.040;2022-09-24T12:24:34;4.78;;;1.15;;
27706;SDS011;36332;51.384;0.040;2022-09-24T12:27:16;5.72;;;1.52;;
27706;SDS011;36332;51.384;0.040;2022-09-24T12:29:57;4.28;;;1.30;;
27706;SDS011;36332;51.384;0.040;2022-09-24T12:32:49;3.30;;;1.00;;
27706;SDS011;36332;51.384;0.040;2022-09-24T12:35:35;3.22;;;1.10;;
27706;SDS011;36332;51.384;0.040;2022-09-24T12:40:54;2.58;;;1.00;;
27706;SDS011;36332;51.384;0.040;2022-09-24T12:43:28;1.98;;;1.00;;
27706;SDS011;36332;51.384;0.040;2022-09-24T12:46:05;2.95;;;1.30;;
27706;SDS011;36332;51.384;0.040;2022-09-24T12:48:43;3.35;;;1.00;;
27706;SDS011;36332;51.384;0.040;2022-09-24T12:51:13;2.95;;;0.98;;
27706;SDS011;36332;51.384;0.040;2022-09-24T12:53:53;3.38;;;1.00;;
27706;SDS011;36332;51.384;0.040;2022-09-24T12:56:49;3.92;;;1.35;;
27706;SDS011;36332;51.384;0.040;2022-09-24T12:59:24;7.18;;;1.25;;
27706;SDS011;36332;51.384;0.040;2022-09-24T13:01:53;3.40;;;0.77;;
27706;SDS011;36332;51.384;0.040;2022-09-24T13:04:32;4.68;;;1.50;;
27706;SDS011;36332;51.384;0.040;2022-09-24T13:07:00;2.22;;;0.80;;
27706;SDS011;36332;51.384;0.040;2022-09-24T13:14:59;4.82;;;0.77;;
27706;SDS011;36332;51.384;0.040;2022-09-24T13:17:58;0.98;;;0.45;;
27706;SDS011;36332;51.384;0.040;2022-09-24T13:20:55;3.88;;;1.17;;
27706;SDS011;36332;51.384;0.040;2022-09-24T13:25:55;3.67;;;1.08;;
27706;SDS011;36332;51.384;0.040;2022-09-24T13:28:25;2.80;;;0.90;;
27706;SDS011;36332;51.384;0.040;2022-09-24T13:33:44;3.15;;;1.15;;
27706;SDS011;36332;51.384;0.040;2022-09-24T13:39:44;3.42;;;1.08;;
27706;SDS011;36332;51.384;0.040;2022-09-24T13:42:17;4.60;;;1.38;;
27706;SDS011;36332;51.384;0.040;2022-09-24T13:44:52;4.20;;;1.50;;
27706;SDS011;36332;51.384;0.040;2022-09-24T13:47:50;3.40;;;1.23;;
27706;SDS011;36332;51.384;0.040;2022-09-24T13:50:21;2.05;;;0.93;;
27706;SDS011;36332;51.384;0.040;2022-09-24T13:55:19;2.67;;;1.30;;
27706;SDS011;36332;51.384;0.040;2022-09-24T14:00:56;3.90;;;1.45;;
27706;SDS011;36332;51.384;0.040;2022-09-24T14:03:27;2.92;;;1.15;;
27706;SDS011;36332;51.384;0.040;2022-09-24T14:06:09;1.98;;;1.20;;
27706;SDS011;36332;51.384;0.040;2022-09-24T14:08:42;5.22;;;1.30;;
27706;SDS011;36332;51.384;0.040;2022-09-24T14:11:16;4.43;;;1.00;;
27706;SDS011;36332;51.384;0.040;2022-09-24T14:13:50;3.40;;;1.23;;
27706;SDS011;36332;51.384;0.040;2022-09-24T14:16:22;2.42;;;1.05;;
27706;SDS011;36332;51.384;0.040;2022-09-24T14:19:01;3.33;;;1.08;;
27706;SDS011;36332;51.384;0.040;2022-09-24T14:21:38;6.03;;;1.38;;
27706;SDS011;36332;51.384;0.040;2022-09-24T14:24:22;8.77;;;1.00;;
27706;SDS011;36332;51.384;0.040;2022-09-24T14:26:54;2.47;;;1.08;;
27706;SDS011;36332;51.384;0.040;2022-09-24T14:29:24;5.93;;;1.45;;
27706;SDS011;36332;51.384;0.040;2022-09-24T14:34:47;3.33;;;1.00;;
27706;SDS011;36332;51.384;0.040;2022-09-24T14:37:20;3.67;;;1.20;;
27706;SDS011;36332;51.384;0.040;2022-09-24T14:39:57;1.73;;;0.70;;
27706;SDS011;36332;51.384;0.040;2022-09-24T14:45:05;5.70;;;1.40;;
27706;SDS011;36332;51.384;0.040;2022-09-24T14:47:35;2.42;;;1.40;;
27706;SDS011;36332;51.384;0.040;2022-09-24T14:50:21;3.33;;;1.02;;
27706;SDS011;36332;51.384;0.040;2022-09-24T14:53:01;16.92;;;1.10;;
27706;SDS011;36332;51.384;0.040;2022-09-24T14:55:49;2.75;;;1.00;;
27706;SDS011;36332;51.384;0.040;2022-09-24T14:58:52;5.20;;;1.55;;
27706;SDS011;36332;51.384;0.040;2022-09-24T15:01:12;3.33;;;1.10;;
27706;SDS011;36332;51.384;0.040;2022-09-24T15:03:43;3.25;;;1.00;;
27706;SDS011;36332;51.384;0.040;2022-09-24T15:06:22;5.00;;;0.80;;
27706;SDS011;36332;51.384;0.040;2022-09-24T15:11:20;6.70;;;1.30;;
27706;SDS011;36332;51.384;0.040;2022-09-24T15:14:36;4.30;;;1.30;;
27706;SDS011;36332;51.384;0.040;2022-09-24T15:16:50;2.88;;;0.80;;
27706;SDS011;36332;51.384;0.040;2022-09-24T15:19:20;6.45;;;1.48;;
27706;SDS011;36332;51.384;0.040;2022-09-24T15:21:50;1.67;;;0.90;;
27706;SDS011;36332;51.384;0.040;2022-09-24T15:24:18;8.13;;;1.17;;
27706;SDS011;36332;51.384;0.040;2022-09-24T15:26:47;5.78;;;0.80;;
27706;SDS011;36332;51.384;0.040;2022-09-24T15:29:26;6.70;;;1.00;;
27706;SDS011;36332;51.384;0.040;2022-09-24T15:31:53;5.68;;;0.85;;
27706;SDS011;36332;51.384;0.040;2022-09-24T15:34:23;4.10;;;0.90;;
27706;SDS011;36332;51.384;0.040;2022-09-24T15:36:52;1.75;;;0.50;;
27706;SDS011;36332;51.384;0.040;2022-09-24T15:39:25;2.47;;;0.93;;
27706;SDS011;36332;51.384;0.040;2022-09-24T15:41:54;4.38;;;0.60;;
27706;SDS011;36332;51.384;0.040;2022-09-24T15:44:22;3.90;;;0.70;;
27706;SDS011;36332;51.384;0.040;2022-09-24T15:46:59;1.05;;;0.80;;
27706;SDS011;36332;51.384;0.040;2022-09-24T15:49:27;2.47;;;0.60;;
27706;SDS011;36332;51.384;0.040;2022-09-24T15:51:57;5.35;;;0.85;;
27706;SDS011;36332;51.384;0.040;2022-09-24T15:54:28;1.10;;;0.50;;
27706;SDS011;36332;51.384;0.040;2022-09-24T15:56:56;1.00;;;0.88;;
27706;SDS011;36332;51.384;0.040;2022-09-24T15:59:25;1.75;;;1.00;;
27706;SDS011;36332;51.384;0.040;2022-09-24T16:01:53;1.88;;;0.70;;
27706;SDS011;36332;51.384;0.040;2022-09-24T16:04:28;0.80;;;0.65;;
27706;SDS011;36332;51.384;0.040;2022-09-24T16:06:56;1.00;;;0.70;;
27706;SDS011;36332;51.384;0.040;2022-09-24T16:09:24;1.58;;;0.63;;
27706;SDS011;36332;51.384;0.040;2022-09-24T16:11:52;0.75;;;0.40;;
27706;SDS011;36332;51.384;0.040;2022-09-24T16:14:21;2.33;;;0.63;;
27706;SDS011;36332;51.384;0.040;2022-09-24T16:16:48;1.08;;;0.57;;
27706;SDS011;36332;51.384;0.040;2022-09-24T16:19:16;2.03;;;0.73;;
27706;SDS011;36332;51.384;0.040;2022-09-24T16:21:44;1.40;;;0.50;;
27706;SDS011;36332;51.384;0.040;2022-09-24T16:24:13;1.08;;;0.60;;
27706;SDS011;36332;51.384;0.040;2022-09-24T16:26:41;1.45;;;0.63;;
27706;SDS011;36332;51.384;0.040;2022-09-24T16:29:09;0.85;;;0.60;;
27706;SDS011;36332;51.384;0.040;2022-09-24T16:31:38;2.38;;;0.65;;
27706;SDS011;36332;51.384;0.040;2022-09-24T16:34:06;0.90;;;0.65;;
27706;SDS011;36332;51.384;0.040;2022-09-24T16:36:34;2.97;;;0.82;;
27706;SDS011;36332;51.384;0.040;2022-09-24T16:39:02;2.95;;;1.08;;
27706;SDS011;36332;51.384;0.040;2022-09-24T16:41:31;2.60;;;0.73;;
27706;SDS011;36332;51.384;0.040;2022-09-24T16:44:00;1.30;;;0.82;;
27706;SDS011;36332;51.384;0.040;2022-09-24T16:46:28;3.40;;;0.82;;
27706;SDS011;36332;51.384;0.040;2022-09-24T16:48:57;2.88;;;1.20;;
27706;SDS011;36332;51.384;0.040;2022-09-24T16:51:25;1.75;;;0.68;;
27706;SDS011;36332;51.384;0.040;2022-09-24T16:53:54;2.75;;;0.88;;
27706;SDS011;36332;51.384;0.040;2022-09-24T16:56:22;4.85;;;0.85;;
27706;SDS011;36332;51.384;0.040;2022-09-24T16:58:50;1.25;;;0.57;;
27706;SDS011;36332;51.384;0.040;2022-09-24T17:01:19;0.73;;;0.55;;
27706;SDS011;36332;51.384;0.040;2022-09-24T17:03:51;7.22;;;0.90;;
27706;SDS011;36332;51.384;0.040;2022-09-24T17:06:21;0.55;;;0.32;;
27706;SDS011;36332;51.384;0.040;2022-09-24T17:08:53;1.52;;;0.70;;
27706;SDS011;36332;51.384;0.040;2022-09-24T17:11:40;1.60;;;0.65;;
27706;SDS011;36332;51.384;0.040;2022-09-24T17:14:08;2.97;;;0.70;;
27706;SDS011;36332;51.384;0.040;2022-09-24T17:16:38;1.40;;;0.70;;
27706;SDS011;36332;51.384;0.040;2022-09-24T17:19:07;1.33;;;1.13;;